createdAt,value
2022-08-17T00:12:41.879Z,49.27
2022-08-17T00:15:10.870Z,49.21
2022-08-17T00:17:38.059Z,48.84
2022-08-17T00:20:05.673Z,49.03
2022-08-17T00:22:36.391Z,49.64
2022-08-17T00:25:15.833Z,49.59
2022-08-17T00:27:43.295Z,49.46
2022-08-17T00:30:11.139Z,49.79
2022-08-17T00:33:12.501Z,49.96
2022-08-17T00:35:27.884Z,49.94
2022-08-17T00:37:55.440Z,49.77
2022-08-17T00:40:24.795Z,50.23
2022-08-17T00:42:53.442Z,50.57
2022-08-17T00:45:20.727Z,50.53
2022-08-17T00:47:48.035Z,50.53
2022-08-17T00:50:16.057Z,50.48
2022-08-17T00:52:50.319Z,50.27
2022-08-17T00:55:18.336Z,50.71
2022-08-17T00:57:46.951Z,50.67
2022-08-17T01:00:34.524Z,50.59
2022-08-17T01:03:07.693Z,50.37
2022-08-17T01:05:38.321Z,51.70
2022-08-17T01:08:11.290Z,51.16
2022-08-17T01:10:58.625Z,51.60
2022-08-17T01:13:42.800Z,50.77
2022-08-17T01:16:17.406Z,51.02
2022-08-17T01:18:46.096Z,50.82
2022-08-17T01:21:20.475Z,50.36
2022-08-17T01:23:47.910Z,49.93
2022-08-17T01:26:15.110Z,50.44
2022-08-17T01:28:55.058Z,51.19
2022-08-17T01:31:24.626Z,51.33
2022-08-17T01:33:51.790Z,52.33
2022-08-17T01:36:18.995Z,52.23
2022-08-17T01:38:46.447Z,51.29
2022-08-17T01:41:14.190Z,52.23
2022-08-17T01:43:46.006Z,52.60
2022-08-17T01:46:18.714Z,52.14
2022-08-17T01:48:47.584Z,51.60
2022-08-17T01:51:15.743Z,52.31
2022-08-17T01:53:45.525Z,51.84
2022-08-17T01:56:13.463Z,51.77
2022-08-17T01:58:41.283Z,51.84
2022-08-17T02:01:09.901Z,51.78
2022-08-17T02:03:37.796Z,51.48
2022-08-17T02:06:05.937Z,51.51
2022-08-17T02:09:02.835Z,52.08
2022-08-17T02:11:32.298Z,52.83
2022-08-17T02:14:03.262Z,52.00
2022-08-17T02:16:37.601Z,51.81
2022-08-17T02:19:12.987Z,51.92
2022-08-17T02:21:40.574Z,51.77
2022-08-17T02:24:08.820Z,51.74
2022-08-17T02:26:36.011Z,52.67
2022-08-17T02:29:04.252Z,53.18
2022-08-17T02:31:31.776Z,53.63
2022-08-17T02:34:03.972Z,53.50
2022-08-17T02:36:35.735Z,52.75
2022-08-17T02:39:04.387Z,52.36
2022-08-17T02:41:31.567Z,52.34
2022-08-17T02:43:59.012Z,52.71
2022-08-17T02:46:26.200Z,53.75
2022-08-17T02:48:53.398Z,54.17
2022-08-17T02:51:20.852Z,53.88
2022-08-17T02:53:48.046Z,53.47
2022-08-17T02:56:15.214Z,54.26
2022-08-17T02:58:42.660Z,54.15
2022-08-17T03:01:10.302Z,53.45
2022-08-17T03:03:37.642Z,53.18
2022-08-17T03:06:05.266Z,53.44
2022-08-17T03:08:32.438Z,53.24
2022-08-17T03:10:59.770Z,53.42
2022-08-17T03:13:27.589Z,53.75
2022-08-17T03:15:54.773Z,53.72
2022-08-17T03:18:25.637Z,54.17
2022-08-17T03:20:54.811Z,54.13
2022-08-17T03:23:23.974Z,55.00
2022-08-17T03:25:52.847Z,54.74
2022-08-17T03:28:21.378Z,54.89
2022-08-17T03:30:48.847Z,55.10
2022-08-17T03:33:17.003Z,55.51
2022-08-17T03:35:44.499Z,55.37
2022-08-17T03:38:12.121Z,54.97
2022-08-17T03:40:59.085Z,55.04
2022-08-17T03:43:28.055Z,55.15
2022-08-17T03:46:34.476Z,54.90
2022-08-17T03:49:19.627Z,54.90
2022-08-17T03:52:05.393Z,55.24
2022-08-17T03:54:51.544Z,55.50
2022-08-17T03:57:19.355Z,55.98
2022-08-17T03:59:47.655Z,56.72
2022-08-17T04:02:28.948Z,55.81
2022-08-17T04:04:56.498Z,55.45
2022-08-17T04:07:25.214Z,55.45
2022-08-17T04:09:52.356Z,54.90
2022-08-17T04:12:20.702Z,54.88
2022-08-17T04:14:53.562Z,54.72
2022-08-17T04:17:22.523Z,55.02
2022-08-17T04:19:49.674Z,54.81
2022-08-17T04:22:32.343Z,54.65
2022-08-17T04:25:10.045Z,54.50
2022-08-17T04:27:37.210Z,55.37
2022-08-17T04:30:06.919Z,54.61
2022-08-17T04:33:04.504Z,53.82
2022-08-17T04:35:44.168Z,53.23
2022-08-17T04:38:12.658Z,52.33
2022-08-17T04:40:58.654Z,51.96
2022-08-17T04:43:26.386Z,50.90
2022-08-17T04:45:56.856Z,50.36
2022-08-17T04:48:29.955Z,49.76
2022-08-17T04:51:04.683Z,49.65
2022-08-17T04:53:31.895Z,50.61
2022-08-17T04:55:59.214Z,50.12
2022-08-17T04:58:26.675Z,49.84
2022-08-17T05:00:53.864Z,49.42
2022-08-17T05:03:21.057Z,48.82
2022-08-17T05:05:49.929Z,50.06
2022-08-17T05:08:18.632Z,48.00
2022-08-17T05:10:45.954Z,47.86
2022-08-17T05:13:18.558Z,48.43
2022-08-17T05:15:47.582Z,47.17
2022-08-17T05:18:15.815Z,45.07
2022-08-17T05:20:42.989Z,44.11
2022-08-17T05:23:11.549Z,44.19
2022-08-17T05:25:40.597Z,43.01
2022-08-17T05:28:08.734Z,42.28
2022-08-17T05:30:38.069Z,43.09
2022-08-17T05:33:06.862Z,43.43
2022-08-17T05:35:35.343Z,43.62
2022-08-17T05:38:02.511Z,43.88
2022-08-17T05:40:32.934Z,42.93
2022-08-17T05:43:12.470Z,45.33
2022-08-17T05:45:56.068Z,44.35
2022-08-17T05:48:39.413Z,43.47
2022-08-17T05:51:10.447Z,43.55
2022-08-17T05:53:40.179Z,42.39
2022-08-17T05:56:22.707Z,42.59
2022-08-17T05:59:11.410Z,41.65
2022-08-17T06:01:53.896Z,40.96
2022-08-17T06:04:26.275Z,42.04
2022-08-17T06:06:53.442Z,40.39
2022-08-17T06:09:33.005Z,40.99
2022-08-17T06:12:33.428Z,40.21
2022-08-17T06:15:16.476Z,38.68
2022-08-17T06:17:43.641Z,39.16
2022-08-17T06:20:12.303Z,38.10
2022-08-17T06:22:44.529Z,39.04
2022-08-17T06:25:19.432Z,38.53
2022-08-17T06:27:53.673Z,38.27
2022-08-17T06:30:22.341Z,37.06
2022-08-17T06:32:50.120Z,36.94
2022-08-17T06:35:32.095Z,35.88
2022-08-17T06:38:04.677Z,35.04
2022-08-17T06:40:36.869Z,34.37
2022-08-17T06:43:17.449Z,34.30
2022-08-17T06:45:54.238Z,34.36
2022-08-17T06:48:25.622Z,35.06
2022-08-17T06:51:12.194Z,36.74
2022-08-17T06:53:44.502Z,35.71
2022-08-17T06:56:13.689Z,35.43
2022-08-17T06:58:42.068Z,37.40
2022-08-17T07:01:14.926Z,38.31
2022-08-17T07:04:18.272Z,38.25
2022-08-17T07:06:52.502Z,37.33
2022-08-17T07:09:23.436Z,38.47
2022-08-17T07:11:59.302Z,38.24
2022-08-17T07:14:53.006Z,40.21
2022-08-17T07:17:21.126Z,39.08
2022-08-17T07:20:12.917Z,39.15
2022-08-17T07:22:50.312Z,37.98
2022-08-17T07:25:27.536Z,37.44
2022-08-17T07:27:56.337Z,37.87
2022-08-17T07:30:24.965Z,36.05
2022-08-17T07:32:53.751Z,35.96
2022-08-17T07:35:23.108Z,34.41
2022-08-17T07:38:28.454Z,34.33
2022-08-17T07:41:05.393Z,35.64
2022-08-17T07:43:39.028Z,33.44
2022-08-17T07:46:31.121Z,34.09
2022-08-17T07:49:16.113Z,33.90
2022-08-17T07:51:43.272Z,34.11
2022-08-17T07:54:22.585Z,31.91
2022-08-17T07:56:49.916Z,30.59
2022-08-17T07:59:24.584Z,30.81
2022-08-17T08:01:56.774Z,30.73
2022-08-17T08:04:59.151Z,31.56
2022-08-17T08:07:25.289Z,32.13
2022-08-17T08:09:58.827Z,32.09
2022-08-17T08:12:33.801Z,31.13
2022-08-17T08:15:01.801Z,30.51
2022-08-17T08:17:35.712Z,29.30
2022-08-17T08:20:52.699Z,30.41
2022-08-17T08:23:08.080Z,31.36
2022-08-17T08:25:53.629Z,30.77
2022-08-17T08:28:39.071Z,31.18
2022-08-17T08:31:21.856Z,28.79
2022-08-17T08:33:49.155Z,30.55
2022-08-17T08:36:56.979Z,29.95
2022-08-17T08:39:08.924Z,32.13
2022-08-17T08:41:38.972Z,30.16
2022-08-17T08:44:18.625Z,29.28
2022-08-17T08:47:09.136Z,28.81
2022-08-17T08:52:30.960Z,27.81
2022-08-17T08:55:00.918Z,27.89
2022-08-17T08:57:34.279Z,27.82
2022-08-17T09:00:06.459Z,28.55
2022-08-17T09:02:34.890Z,28.83
2022-08-17T09:05:21.791Z,28.44
2022-08-17T09:07:57.386Z,27.96
2022-08-17T09:10:31.279Z,27.48
2022-08-17T09:13:15.697Z,25.97
2022-08-17T09:15:45.613Z,26.55
2022-08-17T09:19:00.743Z,26.61
2022-08-17T09:21:04.195Z,26.22
2022-08-17T09:23:42.540Z,28.23
2022-08-17T09:26:12.359Z,27.69
2022-08-17T09:28:40.346Z,27.79
2022-08-17T09:31:11.886Z,27.90
2022-08-17T09:33:43.707Z,27.11
2022-08-17T09:36:25.645Z,26.94
2022-08-17T09:39:03.830Z,27.54
2022-08-17T09:41:37.847Z,25.91
2022-08-17T09:44:23.593Z,25.05
2022-08-17T09:46:52.792Z,25.36
2022-08-17T09:49:26.362Z,26.28
2022-08-17T09:52:04.040Z,26.00
2022-08-17T09:54:39.119Z,24.56
2022-08-17T09:57:28.530Z,24.08
2022-08-17T10:00:15.730Z,24.84
2022-08-17T10:03:05.498Z,23.96
2022-08-17T10:05:51.329Z,24.01
2022-08-17T10:08:44.674Z,24.43
2022-08-17T10:11:50.462Z,24.19
2022-08-17T10:14:36.382Z,24.43
2022-08-17T10:17:05.615Z,24.31
2022-08-17T10:19:32.984Z,24.61
2022-08-17T10:22:34.693Z,24.33
2022-08-17T10:25:24.825Z,23.52
2022-08-17T10:28:01.665Z,23.42
2022-08-17T10:30:29.996Z,23.68
2022-08-17T10:32:57.194Z,23.15
2022-08-17T10:35:36.619Z,23.10
2022-08-17T10:38:24.676Z,24.35
2022-08-17T10:40:57.454Z,24.24
2022-08-17T10:43:34.328Z,24.33
2022-08-17T10:46:26.475Z,23.34
2022-08-17T10:49:11.086Z,23.97
2022-08-17T10:51:38.962Z,23.88
2022-08-17T10:54:06.753Z,23.45
2022-08-17T10:56:51.018Z,23.24
2022-08-17T10:59:47.156Z,24.07
2022-08-17T11:02:14.272Z,23.30
2022-08-17T11:05:06.231Z,23.66
2022-08-17T11:07:39.696Z,23.92
2022-08-17T11:10:23.697Z,23.81
2022-08-17T11:12:54.326Z,24.84
2022-08-17T11:15:33.928Z,24.87
2022-08-17T11:18:01.541Z,24.77
2022-08-17T11:20:38.720Z,25.52
2022-08-17T11:23:20.923Z,25.78
2022-08-17T11:25:52.394Z,25.65
2022-08-17T11:28:23.071Z,26.62
2022-08-17T11:30:54.634Z,27.28
2022-08-17T11:33:38.185Z,26.58
2022-08-17T11:36:06.414Z,26.48
2022-08-17T11:38:48.638Z,26.99
2022-08-17T11:41:34.833Z,25.39
2022-08-17T11:44:07.878Z,26.62
2022-08-17T11:46:56.926Z,25.43
2022-08-17T11:50:01.671Z,24.51
2022-08-17T11:52:35.505Z,23.69
2022-08-17T11:55:24.124Z,24.92
2022-08-17T11:57:54.803Z,24.98
2022-08-17T12:00:40.057Z,25.40
2022-08-17T12:03:26.598Z,24.70
2022-08-17T12:06:17.653Z,25.86
2022-08-17T12:08:51.569Z,25.03
2022-08-17T12:11:58.650Z,24.33
2022-08-17T12:14:51.696Z,24.04
2022-08-17T12:17:39.421Z,23.63
2022-08-17T12:20:29.348Z,23.35
2022-08-17T12:23:14.918Z,23.74
2022-08-17T12:25:43.685Z,22.99
2022-08-17T12:28:22.859Z,22.49
2022-08-17T12:30:52.161Z,22.99
2022-08-17T12:33:25.341Z,22.89
2022-08-17T12:36:06.177Z,23.32
2022-08-17T12:38:34.679Z,21.59
2022-08-17T12:41:21.802Z,20.82
2022-08-17T12:44:03.254Z,21.10
2022-08-17T12:46:40.879Z,20.74
2022-08-17T12:49:25.189Z,21.77
2022-08-17T12:51:54.164Z,21.79
2022-08-17T12:54:35.136Z,21.48
2022-08-17T12:57:05.395Z,21.33
2022-08-17T12:59:35.391Z,20.82
2022-08-17T13:02:02.920Z,19.86
2022-08-17T13:04:30.150Z,18.92
2022-08-17T13:07:00.321Z,18.99
2022-08-17T13:09:35.554Z,18.32
2022-08-17T13:12:05.106Z,18.76
2022-08-17T13:14:33.479Z,19.67
2022-08-17T13:17:01.792Z,19.97
2022-08-17T13:19:40.663Z,19.65
2022-08-17T13:22:10.296Z,20.80
2022-08-17T13:24:38.167Z,19.52
2022-08-17T13:27:10.247Z,19.74
2022-08-17T13:29:51.307Z,18.79
2022-08-17T13:32:24.026Z,18.66
2022-08-17T13:35:14.085Z,18.70
2022-08-17T13:37:55.799Z,17.93
2022-08-17T13:40:23.146Z,18.70
2022-08-17T13:42:54.387Z,18.43
2022-08-17T13:45:39.307Z,17.91
2022-08-17T13:48:07.887Z,18.76
2022-08-17T13:50:39.015Z,18.41
2022-08-17T13:53:20.094Z,17.80
2022-08-17T13:55:48.417Z,17.88
2022-08-17T13:58:19.724Z,18.99
2022-08-17T14:00:46.884Z,19.36
2022-08-17T14:03:15.316Z,20.72
2022-08-17T14:05:42.568Z,20.51
2022-08-17T14:08:10.929Z,20.15
2022-08-17T14:10:38.363Z,20.20
2022-08-17T14:13:06.010Z,20.42
2022-08-17T14:15:54.778Z,20.91
2022-08-17T14:18:55.426Z,21.61
2022-08-17T14:21:09.210Z,21.27
2022-08-17T14:23:36.940Z,21.16
2022-08-17T14:26:04.659Z,20.87
2022-08-17T14:28:32.087Z,20.79
2022-08-17T14:31:00.767Z,20.74
2022-08-17T14:33:28.303Z,19.84
2022-08-17T14:35:57.526Z,20.96
2022-08-17T14:38:24.993Z,20.84
2022-08-17T14:40:52.179Z,20.95
2022-08-17T14:43:21.038Z,20.96
2022-08-17T14:45:48.465Z,20.16
2022-08-17T14:48:15.931Z,19.48
2022-08-17T14:50:43.242Z,19.36
2022-08-17T14:53:11.389Z,20.06
2022-08-17T14:55:40.485Z,18.97
2022-08-17T14:58:08.799Z,19.24
2022-08-17T15:00:36.292Z,19.33
2022-08-17T15:03:03.522Z,20.11
2022-08-17T15:05:32.043Z,20.02
2022-08-17T15:08:00.989Z,19.86
2022-08-17T15:10:29.326Z,19.72
2022-08-17T15:12:56.722Z,19.94
2022-08-17T15:15:24.225Z,19.46
2022-08-17T15:17:51.701Z,20.39
2022-08-17T15:20:20.804Z,20.35
2022-08-17T15:22:55.180Z,20.46
2022-08-17T15:25:23.014Z,20.50
2022-08-17T15:27:50.521Z,20.34
2022-08-17T15:30:17.983Z,20.70
2022-08-17T15:32:50.954Z,20.65
2022-08-17T15:35:27.466Z,20.89
2022-08-17T15:38:03.544Z,20.35
2022-08-17T15:40:36.965Z,19.95
2022-08-17T15:43:08.045Z,20.20
2022-08-17T15:45:35.503Z,21.06
2022-08-17T15:48:02.725Z,21.63
2022-08-17T15:50:29.916Z,21.02
2022-08-17T15:52:58.251Z,21.51
2022-08-17T15:55:26.105Z,21.65
2022-08-17T15:57:53.436Z,21.00
2022-08-17T16:00:23.585Z,21.70
2022-08-17T16:03:16.068Z,20.89
2022-08-17T16:05:38.274Z,21.40
2022-08-17T16:08:08.248Z,21.08
2022-08-17T16:10:36.106Z,20.81
2022-08-17T16:13:03.809Z,19.59
2022-08-17T16:15:31.728Z,19.69
2022-08-17T16:17:59.243Z,20.31
2022-08-17T16:20:26.397Z,20.30
2022-08-17T16:22:54.512Z,20.44
2022-08-17T16:25:23.690Z,20.90
2022-08-17T16:28:11.233Z,20.80
2022-08-17T16:30:38.590Z,20.77
2022-08-17T16:33:05.866Z,20.88
2022-08-17T16:35:33.345Z,21.84
2022-08-17T16:38:00.583Z,21.07
2022-08-17T16:40:28.617Z,20.52
2022-08-17T16:42:57.748Z,20.99
2022-08-17T16:45:26.905Z,20.81
2022-08-17T16:47:54.841Z,21.11
2022-08-17T16:50:23.106Z,21.22
2022-08-17T16:52:50.633Z,21.90
2022-08-17T16:55:18.778Z,22.01
2022-08-17T16:57:50.000Z,21.78
2022-08-17T17:00:19.218Z,22.33
2022-08-17T17:02:47.531Z,22.72
2022-08-17T17:05:41.328Z,22.94
2022-08-17T17:08:09.038Z,22.87
2022-08-17T17:10:40.781Z,23.68
2022-08-17T17:13:09.072Z,23.19
2022-08-17T17:15:46.395Z,22.72
2022-08-17T17:18:15.286Z,23.57
2022-08-17T17:20:45.869Z,23.23
2022-08-17T17:23:21.144Z,23.11
2022-08-17T17:25:52.289Z,22.74
2022-08-17T17:28:31.780Z,23.81
2022-08-17T17:31:16.921Z,23.79
2022-08-17T17:33:52.610Z,24.31
2022-08-17T17:36:21.811Z,24.49
2022-08-17T17:38:50.107Z,24.46
2022-08-17T17:41:25.855Z,25.31
2022-08-17T17:43:56.635Z,25.79
2022-08-17T17:46:30.754Z,26.02
2022-08-17T17:48:58.276Z,26.26
2022-08-17T17:52:08.873Z,26.09
2022-08-17T17:54:25.144Z,27.05
2022-08-17T17:57:15.674Z,25.62
2022-08-17T17:59:58.377Z,26.15
2022-08-17T18:02:53.102Z,27.10
2022-08-17T18:05:39.188Z,27.61
2022-08-17T18:08:32.388Z,27.46
2022-08-17T18:11:07.457Z,27.65
2022-08-17T18:13:50.158Z,27.40
2022-08-17T18:16:19.347Z,27.93
2022-08-17T18:18:46.952Z,27.97
2022-08-17T18:21:19.426Z,27.64
2022-08-17T18:23:57.395Z,27.42
2022-08-17T18:26:40.224Z,27.77
2022-08-17T18:29:24.492Z,28.65
2022-08-17T18:32:10.390Z,29.50
2022-08-17T18:34:47.195Z,29.20
2022-08-17T18:37:27.765Z,28.86
2022-08-17T18:39:55.292Z,29.21
2022-08-17T18:42:24.426Z,29.14
2022-08-17T18:44:54.949Z,29.33
2022-08-17T18:47:26.816Z,30.60
2022-08-17T18:49:57.645Z,30.59
2022-08-17T18:52:27.863Z,30.90
2022-08-17T18:55:14.384Z,31.19
2022-08-17T18:57:42.567Z,31.40
2022-08-17T19:00:11.080Z,31.26
2022-08-17T19:02:48.728Z,31.66
2022-08-17T19:05:31.334Z,32.17
2022-08-17T19:08:24.800Z,31.05
2022-08-17T19:11:02.722Z,31.19
2022-08-17T19:13:45.972Z,31.60
2022-08-17T19:16:17.712Z,32.74
2022-08-17T19:18:54.163Z,32.41
2022-08-17T19:21:23.223Z,32.93
2022-08-17T19:24:13.642Z,32.48
2022-08-17T19:26:53.539Z,32.92
2022-08-17T19:29:22.985Z,33.30
2022-08-17T19:31:50.453Z,33.43
2022-08-17T19:34:29.944Z,33.08
2022-08-17T19:37:21.635Z,33.15
2022-08-17T19:39:48.833Z,33.65
2022-08-17T19:42:16.324Z,33.86
2022-08-17T19:45:09.974Z,33.69
2022-08-17T19:47:54.174Z,34.07
2022-08-17T19:50:44.082Z,35.01
2022-08-17T19:53:14.913Z,34.62
2022-08-17T19:56:01.225Z,33.82
2022-08-17T19:58:34.454Z,34.21
2022-08-17T20:01:01.713Z,34.45
2022-08-17T20:03:35.238Z,34.85
2022-08-17T20:06:18.325Z,35.07
2022-08-17T20:08:49.520Z,35.56
2022-08-17T20:11:41.597Z,35.49
2022-08-17T20:14:14.300Z,35.85
2022-08-17T20:16:41.767Z,35.23
2022-08-17T20:19:17.402Z,36.02
2022-08-17T20:21:46.420Z,36.05
2022-08-17T20:24:13.775Z,36.67
2022-08-17T20:26:40.859Z,36.29
2022-08-17T20:29:19.151Z,36.21
2022-08-17T20:32:07.456Z,36.53
2022-08-17T20:34:37.765Z,36.79
2022-08-17T20:37:14.593Z,37.13
2022-08-17T20:40:02.316Z,36.41
2022-08-17T20:42:30.573Z,36.27
2022-08-17T20:44:59.292Z,36.06
2022-08-17T20:47:34.248Z,36.31
2022-08-17T20:50:06.929Z,36.85
2022-08-17T20:52:41.249Z,37.48
2022-08-17T20:55:09.539Z,38.23
2022-08-17T20:57:36.697Z,38.08
2022-08-17T21:00:14.260Z,38.10
2022-08-17T21:02:50.963Z,38.08
2022-08-17T21:05:37.022Z,37.39
2022-08-17T21:08:17.267Z,37.56
2022-08-17T21:10:46.427Z,37.65
2022-08-17T21:13:15.292Z,37.92
2022-08-17T21:15:57.496Z,38.11
2022-08-17T21:18:30.037Z,39.22
2022-08-17T21:20:57.147Z,39.08
2022-08-17T21:23:33.698Z,39.14
2022-08-17T21:26:06.680Z,38.66
2022-08-17T21:29:00.670Z,38.38
2022-08-17T21:31:30.357Z,38.19
2022-08-17T21:34:16.984Z,38.42
2022-08-17T21:36:44.492Z,39.05
2022-08-17T21:39:13.594Z,39.23
2022-08-17T21:41:46.053Z,39.03
2022-08-17T21:44:21.555Z,39.08
2022-08-17T21:46:50.217Z,38.46
2022-08-17T21:49:19.771Z,38.78
2022-08-17T21:51:49.894Z,39.39
2022-08-17T21:54:28.387Z,38.99
2022-08-17T21:56:55.594Z,39.22
2022-08-17T21:59:27.442Z,38.86
2022-08-17T22:01:56.020Z,38.68
2022-08-17T22:04:28.898Z,38.68
2022-08-17T22:06:57.202Z,38.83
2022-08-17T22:09:26.553Z,39.46
2022-08-17T22:11:55.214Z,39.88
2022-08-17T22:14:27.004Z,39.96
2022-08-17T22:17:25.101Z,39.70
2022-08-17T22:19:56.879Z,39.32
2022-08-17T22:22:32.450Z,39.29
2022-08-17T22:25:01.442Z,38.29
2022-08-17T22:27:48.576Z,38.87
2022-08-17T22:30:22.181Z,39.03
2022-08-17T22:32:49.882Z,39.13
2022-08-17T22:35:29.276Z,40.38
2022-08-17T22:37:56.918Z,40.09
2022-08-17T22:40:31.326Z,40.20
2022-08-17T22:42:59.066Z,40.00
2022-08-17T22:45:26.341Z,40.03
2022-08-17T22:47:54.335Z,40.00
2022-08-17T22:50:23.112Z,39.65
2022-08-17T22:53:16.665Z,39.92
2022-08-17T22:56:13.166Z,40.08
2022-08-17T22:59:13.419Z,40.09
2022-08-17T23:01:41.138Z,39.59
2022-08-17T23:04:10.019Z,41.25
2022-08-17T23:06:38.015Z,41.13
2022-08-17T23:09:06.081Z,40.71
2022-08-17T23:11:48.754Z,40.62
2022-08-17T23:14:19.180Z,40.09
2022-08-17T23:16:46.908Z,40.78
2022-08-17T23:19:15.448Z,41.52
2022-08-17T23:21:44.851Z,42.16
2022-08-17T23:24:14.568Z,41.76
2022-08-17T23:26:41.742Z,41.84
2022-08-17T23:29:09.456Z,43.81
2022-08-17T23:31:36.931Z,47.12
2022-08-17T23:34:04.653Z,44.63
2022-08-17T23:36:33.315Z,43.46
2022-08-17T23:39:00.482Z,43.89
2022-08-17T23:41:28.170Z,43.60
2022-08-17T23:43:55.547Z,42.89
2022-08-17T23:46:24.547Z,43.33
2022-08-17T23:48:54.798Z,43.19
2022-08-17T23:51:25.737Z,43.01
2022-08-17T23:53:54.398Z,42.79
2022-08-17T23:56:26.094Z,43.15
2022-08-17T23:58:54.804Z,43.46
